VIL weather

Dakhla Airport
Dakhla, Western Sahara

Public forecast

Using degrees Celsius for public forecast. Weather courtesy of forecast.io.

Current aviation weather report (METAR) for Dakhla Airport

Report is more than 6 hours old.

Retrieved 2019/10/08 13:52 UTC (11 days ago):

GMMH 081352Z 01022KT 6000 2500W BR SCT003 20/17 Q1012

Aviation forecast (TAF) for Dakhla Airport

Retrieved 2019/10/19 06:00 UTC (6 hours ago):

TAF GMMH 190500Z 1906/2012 01015KT 8000 NSC